KCDN/CDN METAR and TAF weather

Enter ICAO airport designator
Station Type Date Time Source
KCDN METAR 2018/01/22 11:55 UTC NOAA

KCDN 221155Z AUTO 00000KT 10SM CLR 03/01 A3019 RMK AO2


Station Type Date Time Source
KCDN Decoded METAR 2018/01/22 11:55 UTC NOAA

Station name not available
Jan 22, 2018 - 06:55 AM EST / 2018.01.22 1155 UTC
Wind: Calm:0
Visibility: 10 mile(s):0
Sky conditions: clear
Temperature: 37 F (3 C)
Dew Point: 33 F (1 C)
Relative Humidity: 86%
Pressure (altimeter): 30.19 in. Hg (1022 hPa)
ob: KCDN 221155Z AUTO 00000KT 10SM CLR 03/01 A3019 RMK AO2
cycle: 12

Station Type Date Time Source
KCDN TAF UTC NOAA

Error!


Example: see airport list